createdAt,value
2019-02-06T00:02:57.633Z,17.33
2019-02-06T00:08:07.494Z,15.61
2019-02-06T00:13:15.894Z,16.58
2019-02-06T00:18:24.650Z,16.11
2019-02-06T00:23:32.998Z,17.03
2019-02-06T00:28:41.791Z,17.08
2019-02-06T00:33:50.168Z,16.64
2019-02-06T00:38:59.022Z,18.35
2019-02-06T00:44:07.400Z,16.96
2019-02-06T00:49:16.406Z,16.14
2019-02-06T00:54:24.819Z,16.16
2019-02-06T00:59:33.593Z,16.10
2019-02-06T01:04:41.981Z,15.59
2019-02-06T01:09:50.900Z,14.95
2019-02-06T01:14:59.256Z,14.29
2019-02-06T01:20:08.044Z,14.67
2019-02-06T01:25:16.619Z,14.44
2019-02-06T01:30:25.541Z,15.18
2019-02-06T01:35:33.860Z,14.30
2019-02-06T01:40:42.615Z,14.57
2019-02-06T01:45:51.137Z,13.77
2019-02-06T01:50:59.834Z,16.78
2019-02-06T01:56:08.263Z,14.41
2019-02-06T02:01:17.064Z,15.35
2019-02-06T02:06:25.485Z,15.45
2019-02-06T02:11:34.272Z,15.26
2019-02-06T02:16:42.727Z,14.53
2019-02-06T02:21:52.537Z,14.62
2019-02-06T02:27:00.934Z,14.47
2019-02-06T02:32:09.836Z,14.12
2019-02-06T02:37:18.197Z,14.27
2019-02-06T02:42:26.926Z,14.04
2019-02-06T02:47:35.302Z,13.90
2019-02-06T02:52:44.017Z,14.06
2019-02-06T02:57:52.382Z,17.20
2019-02-06T03:03:01.270Z,21.88
2019-02-06T03:08:09.616Z,19.74
2019-02-06T03:13:18.551Z,15.20
2019-02-06T03:18:26.996Z,13.03
2019-02-06T03:23:35.680Z,12.42
2019-02-06T03:28:44.092Z,13.11
2019-02-06T03:33:52.837Z,13.42
2019-02-06T03:39:01.380Z,13.94
2019-02-06T03:44:10.414Z,13.75
2019-02-06T03:49:18.745Z,13.31
2019-02-06T03:54:27.375Z,13.73
2019-02-06T03:59:35.701Z,13.79
2019-02-06T04:04:44.505Z,13.44
2019-02-06T04:09:52.952Z,13.72
2019-02-06T04:15:01.964Z,14.16
2019-02-06T04:20:10.413Z,14.04
2019-02-06T04:25:19.170Z,14.57
2019-02-06T04:30:27.684Z,14.22
2019-02-06T04:35:36.511Z,14.34
2019-02-06T04:40:44.923Z,14.32
2019-02-06T04:45:53.770Z,14.42
2019-02-06T04:51:02.503Z,15.78
2019-02-06T04:56:12.223Z,15.56
2019-02-06T05:01:20.914Z,16.43
2019-02-06T05:06:29.918Z,16.31
2019-02-06T05:11:38.351Z,15.92
2019-02-06T05:16:47.271Z,14.87
2019-02-06T05:21:55.776Z,15.60
2019-02-06T05:27:04.692Z,15.44
2019-02-06T05:32:13.120Z,15.03
2019-02-06T05:37:31.756Z,14.80
2019-02-06T05:42:30.246Z,14.62
2019-02-06T05:47:39.168Z,15.75
2019-02-06T05:52:47.593Z,14.77
2019-02-06T05:57:58.338Z,14.29
2019-02-06T06:02:56.928Z,14.25
2019-02-06T06:08:05.164Z,14.09
2019-02-06T06:13:13.901Z,13.94
2019-02-06T06:18:22.236Z,14.91
2019-02-06T06:23:31.089Z,15.84
2019-02-06T06:28:39.658Z,15.01
2019-02-06T06:33:48.265Z,14.87
2019-02-06T06:38:56.672Z,14.05
2019-02-06T06:44:06.485Z,14.62
2019-02-06T06:49:14.846Z,14.41
2019-02-06T06:54:24.373Z,14.42
2019-02-06T06:59:43.288Z,16.02
2019-02-06T07:04:41.684Z,15.33
2019-02-06T07:09:50.034Z,14.26
2019-02-06T07:14:58.714Z,14.80
2019-02-06T07:20:07.077Z,15.66
2019-02-06T07:25:15.752Z,15.47
2019-02-06T07:30:24.253Z,16.65
2019-02-06T07:35:33.021Z,16.20
2019-02-06T07:40:41.364Z,16.92
2019-02-06T07:45:50.125Z,16.82
2019-02-06T07:50:58.544Z,17.21
2019-02-06T07:56:07.216Z,18.07
2019-02-06T08:01:15.704Z,17.38
2019-02-06T08:06:24.420Z,17.06
2019-02-06T08:11:32.955Z,16.43
2019-02-06T08:16:41.835Z,16.76
2019-02-06T08:21:50.473Z,16.60
2019-02-06T08:26:59.175Z,16.76
2019-02-06T08:32:07.572Z,15.89
2019-02-06T08:37:16.357Z,17.94
2019-02-06T08:42:24.867Z,16.70
2019-02-06T08:47:38.348Z,17.22
2019-02-06T08:52:36.812Z,17.14
2019-02-06T08:57:45.233Z,17.48
2019-02-06T09:02:56.038Z,17.85
2019-02-06T09:07:54.442Z,18.04
2019-02-06T09:13:03.039Z,17.60
2019-02-06T09:18:12.693Z,18.28
2019-02-06T09:23:21.479Z,19.23
2019-02-06T09:28:30.211Z,18.55
2019-02-06T09:33:38.601Z,18.51
2019-02-06T09:38:47.210Z,19.19
2019-02-06T09:43:55.750Z,19.35
2019-02-06T09:49:04.386Z,19.10
2019-02-06T09:54:12.905Z,18.88
2019-02-06T09:59:21.478Z,19.02
2019-02-06T10:04:29.937Z,20.21
2019-02-06T10:09:38.679Z,19.80
2019-02-06T10:14:51.006Z,20.82
2019-02-06T10:19:48.786Z,21.51
2019-02-06T10:25:00.345Z,22.18
2019-02-06T10:29:59.193Z,22.84
2019-02-06T10:35:07.506Z,22.97
2019-02-06T10:40:16.219Z,22.82
2019-02-06T10:45:24.547Z,22.61
2019-02-06T10:50:33.288Z,23.62
2019-02-06T10:55:41.600Z,23.58
2019-02-06T11:00:50.359Z,23.80
2019-02-06T11:05:58.742Z,22.87
2019-02-06T11:11:07.438Z,23.53
2019-02-06T11:16:15.852Z,24.15
2019-02-06T11:21:24.585Z,22.79
2019-02-06T11:26:32.990Z,23.43
2019-02-06T11:31:41.768Z,24.36
2019-02-06T11:36:50.276Z,23.86
2019-02-06T11:41:59.244Z,24.26
2019-02-06T11:47:07.553Z,24.59
2019-02-06T11:52:15.900Z,24.68
2019-02-06T11:57:24.440Z,24.00
2019-02-06T12:02:37.448Z,25.37
2019-02-06T12:07:41.426Z,25.06
2019-02-06T12:12:50.217Z,25.56
2019-02-06T12:17:58.945Z,25.50
2019-02-06T12:23:07.771Z,25.74
2019-02-06T12:28:16.313Z,27.49
2019-02-06T12:33:25.088Z,25.19
2019-02-06T12:38:33.696Z,26.05
2019-02-06T12:43:41.176Z,24.35
2019-02-06T12:48:49.685Z,25.12
2019-02-06T12:53:58.409Z,24.04
2019-02-06T12:59:06.953Z,23.90
2019-02-06T13:04:17.164Z,24.72
2019-02-06T13:09:15.569Z,24.54
2019-02-06T13:14:23.912Z,23.90
2019-02-06T13:19:32.890Z,24.34
2019-02-06T13:24:41.341Z,23.51
2019-02-06T13:29:49.912Z,25.05
2019-02-06T13:34:58.893Z,23.48
2019-02-06T13:40:06.802Z,24.13
2019-02-06T13:45:15.241Z,24.67
2019-02-06T13:50:22.454Z,22.97
2019-02-06T13:55:33.125Z,24.45
2019-02-06T14:00:31.815Z,22.88
2019-02-06T14:05:40.287Z,23.50
2019-02-06T14:10:59.859Z,21.89
2019-02-06T14:15:57.069Z,22.43
2019-02-06T14:21:05.844Z,23.22
2019-02-06T14:26:14.317Z,23.46
2019-02-06T14:31:23.025Z,24.75
2019-02-06T14:36:31.595Z,23.97
2019-02-06T14:41:40.452Z,23.03
2019-02-06T14:46:48.882Z,19.82
2019-02-06T14:51:57.586Z,20.57
2019-02-06T14:57:06.372Z,19.19
2019-02-06T15:02:15.251Z,18.61
2019-02-06T15:07:23.645Z,21.46
2019-02-06T15:12:32.427Z,21.70
2019-02-06T15:17:40.821Z,20.80
2019-02-06T15:22:49.694Z,20.21
2019-02-06T15:27:56.655Z,21.01
2019-02-06T15:33:05.381Z,20.30
2019-02-06T15:38:13.775Z,21.16
2019-02-06T15:43:22.701Z,21.60
2019-02-06T15:48:31.157Z,26.46
2019-02-06T15:53:39.585Z,25.68
2019-02-06T15:58:47.924Z,26.09
2019-02-06T16:03:56.866Z,26.40
2019-02-06T16:09:05.386Z,25.41
2019-02-06T16:14:14.324Z,26.42
2019-02-06T16:19:22.677Z,26.83
2019-02-06T16:24:32.606Z,26.16
2019-02-06T16:29:39.676Z,27.15
2019-02-06T16:34:48.613Z,27.18
2019-02-06T16:39:57.805Z,27.21
2019-02-06T16:45:06.951Z,26.32
2019-02-06T16:50:15.350Z,26.12
2019-02-06T16:55:24.114Z,26.05
2019-02-06T17:00:32.604Z,26.74
2019-02-06T17:05:41.517Z,26.36
2019-02-06T17:10:50.292Z,27.87
2019-02-06T17:15:59.184Z,26.35
2019-02-06T17:21:07.614Z,26.41
2019-02-06T17:26:16.771Z,30.16
2019-02-06T17:31:25.302Z,28.29
2019-02-06T17:36:34.099Z,27.43
2019-02-06T17:41:42.457Z,29.30
2019-02-06T17:46:51.373Z,29.31
2019-02-06T17:51:59.934Z,29.24
2019-02-06T17:57:08.697Z,29.32
2019-02-06T18:02:15.817Z,29.28
2019-02-06T18:07:24.632Z,35.12
2019-02-06T18:12:33.025Z,33.86
2019-02-06T18:17:41.844Z,33.10
2019-02-06T18:22:50.359Z,34.86
2019-02-06T18:27:59.068Z,30.95
2019-02-06T18:33:07.457Z,32.72
2019-02-06T18:38:16.244Z,32.26
2019-02-06T18:43:24.635Z,30.99
2019-02-06T18:48:33.409Z,27.61
2019-02-06T18:53:41.772Z,27.02
2019-02-06T18:58:50.623Z,27.67
2019-02-06T19:03:59.161Z,27.59
2019-02-06T19:09:07.706Z,28.41
2019-02-06T19:14:16.443Z,29.61
2019-02-06T19:19:25.794Z,30.76
2019-02-06T19:24:34.980Z,31.10
2019-02-06T19:29:33.432Z,31.01
2019-02-06T19:34:42.312Z,30.67
2019-02-06T19:39:51.088Z,30.87
2019-02-06T19:45:00.783Z,29.71
2019-02-06T19:50:09.281Z,30.51
2019-02-06T19:55:18.054Z,29.80
2019-02-06T20:00:26.503Z,28.72
2019-02-06T20:05:34.952Z,30.08
2019-02-06T20:10:43.462Z,29.45
2019-02-06T20:15:52.228Z,29.96
2019-02-06T20:21:00.585Z,29.44
2019-02-06T20:26:09.583Z,33.67
2019-02-06T20:31:17.929Z,30.32
2019-02-06T20:36:26.970Z,29.20
2019-02-06T20:41:35.326Z,27.62
2019-02-06T20:46:45.142Z,28.31
2019-02-06T20:51:53.498Z,30.48
2019-02-06T20:57:12.325Z,30.41
2019-02-06T21:02:10.612Z,30.45
2019-02-06T21:07:19.457Z,30.50
2019-02-06T21:12:27.919Z,29.99
2019-02-06T21:17:36.983Z,27.88
2019-02-06T21:22:45.379Z,24.80
2019-02-06T21:27:53.858Z,25.27
2019-02-06T21:33:02.244Z,24.46
2019-02-06T21:38:12.214Z,23.58
2019-02-06T21:43:20.674Z,24.13
2019-02-06T21:48:29.453Z,24.24
2019-02-06T21:53:37.810Z,24.15
2019-02-06T21:58:46.862Z,26.83
2019-02-06T22:03:55.272Z,25.63
2019-02-06T22:09:04.185Z,24.89
2019-02-06T22:14:12.564Z,25.52
2019-02-06T22:19:21.130Z,24.26
2019-02-06T22:24:30.664Z,34.95
2019-02-06T22:29:39.299Z,24.41
2019-02-06T22:34:49.476Z,24.36
2019-02-06T22:39:48.229Z,23.99
2019-02-06T22:44:56.554Z,23.77
2019-02-06T22:50:04.201Z,23.10
2019-02-06T22:55:12.973Z,23.94
2019-02-06T23:00:24.158Z,24.09
2019-02-06T23:05:30.733Z,23.26
2019-02-06T23:10:41.066Z,23.61
2019-02-06T23:15:39.291Z,23.49
2019-02-06T23:20:48.132Z,23.66
2019-02-06T23:25:57.282Z,24.49
2019-02-06T23:31:04.621Z,23.07
2019-02-06T23:36:14.090Z,23.71
2019-02-06T23:41:25.678Z,23.64
2019-02-06T23:46:24.391Z,22.36
2019-02-06T23:51:33.041Z,22.56
2019-02-06T23:56:42.879Z,22.91
